sensor_id;sensor_type;location;lat;lon;timestamp;P1;P2;P0
61913;PMS5003;50095;53.336;-1.488;2022-08-23T00:01:53;4;3;
61913;PMS5003;50095;53.336;-1.488;2022-08-23T00:04:25;4;4;
61913;PMS5003;50095;53.336;-1.488;2022-08-23T00:06:55;5;4;
61913;PMS5003;50095;53.336;-1.488;2022-08-23T00:09:24;4;4;
61913;PMS5003;50095;53.336;-1.488;2022-08-23T00:11:54;3;3;
61913;PMS5003;50095;53.336;-1.488;2022-08-23T00:14:31;3;3;
61913;PMS5003;50095;53.336;-1.488;2022-08-23T00:17:00;5;4;
61913;PMS5003;50095;53.336;-1.488;2022-08-23T00:19:27;5;5;
61913;PMS5003;50095;53.336;-1.488;2022-08-23T00:21:55;4;4;
61913;PMS5003;50095;53.336;-1.488;2022-08-23T00:24:23;4;4;
61913;PMS5003;50095;53.336;-1.488;2022-08-23T00:26:53;6;6;
61913;PMS5003;50095;53.336;-1.488;2022-08-23T00:29:25;4;4;
61913;PMS5003;50095;53.336;-1.488;2022-08-23T00:31:56;5;5;
61913;PMS5003;50095;53.336;-1.488;2022-08-23T00:34:25;3;3;
61913;PMS5003;50095;53.336;-1.488;2022-08-23T00:36:53;3;3;
61913;PMS5003;50095;53.336;-1.488;2022-08-23T00:39:20;6;5;
61913;PMS5003;50095;53.336;-1.488;2022-08-23T00:41:48;5;3;
61913;PMS5003;50095;53.336;-1.488;2022-08-23T00:44:18;4;4;
61913;PMS5003;50095;53.336;-1.488;2022-08-23T00:46:50;3;3;
61913;PMS5003;50095;53.336;-1.488;2022-08-23T00:49:21;4;4;
61913;PMS5003;50095;53.336;-1.488;2022-08-23T00:51:51;3;3;
61913;PMS5003;50095;53.336;-1.488;2022-08-23T00:54:25;4;4;
61913;PMS5003;50095;53.336;-1.488;2022-08-23T00:56:55;3;3;
61913;PMS5003;50095;53.336;-1.488;2022-08-23T00:59:26;4;4;
61913;PMS5003;50095;53.336;-1.488;2022-08-23T01:01:54;4;4;
61913;PMS5003;50095;53.336;-1.488;2022-08-23T01:04:21;5;4;
61913;PMS5003;50095;53.336;-1.488;2022-08-23T01:06:50;4;2;
61913;PMS5003;50095;53.336;-1.488;2022-08-23T01:09:24;6;5;
61913;PMS5003;50095;53.336;-1.488;2022-08-23T01:11:55;4;4;
61913;PMS5003;50095;53.336;-1.488;2022-08-23T01:14:28;3;3;
61913;PMS5003;50095;53.336;-1.488;2022-08-23T01:17:02;2;2;
61913;PMS5003;50095;53.336;-1.488;2022-08-23T01:19:36;5;4;
61913;PMS5003;50095;53.336;-1.488;2022-08-23T01:22:07;2;2;
61913;PMS5003;50095;53.336;-1.488;2022-08-23T01:24:39;2;2;
61913;PMS5003;50095;53.336;-1.488;2022-08-23T01:27:08;2;2;
61913;PMS5003;50095;53.336;-1.488;2022-08-23T01:29:37;3;3;
61913;PMS5003;50095;53.336;-1.488;2022-08-23T01:32:05;2;2;
61913;PMS5003;50095;53.336;-1.488;2022-08-23T01:34:33;3;3;
61913;PMS5003;50095;53.336;-1.488;2022-08-23T01:37:03;3;3;
61913;PMS5003;50095;53.336;-1.488;2022-08-23T01:39:32;3;3;
61913;PMS5003;50095;53.336;-1.488;2022-08-23T01:41:59;3;3;
61913;PMS5003;50095;53.336;-1.488;2022-08-23T01:44:27;1;1;
61913;PMS5003;50095;53.336;-1.488;2022-08-23T01:46:54;3;3;
61913;PMS5003;50095;53.336;-1.488;2022-08-23T01:49:22;2;2;
61913;PMS5003;50095;53.336;-1.488;2022-08-23T01:51:49;2;2;
61913;PMS5003;50095;53.336;-1.488;2022-08-23T01:54:17;3;3;
61913;PMS5003;50095;53.336;-1.488;2022-08-23T01:56:45;1;1;
61913;PMS5003;50095;53.336;-1.488;2022-08-23T01:59:13;3;3;
61913;PMS5003;50095;53.336;-1.488;2022-08-23T02:01:40;2;2;
61913;PMS5003;50095;53.336;-1.488;2022-08-23T02:04:08;4;4;
61913;PMS5003;50095;53.336;-1.488;2022-08-23T02:06:36;3;3;
61913;PMS5003;50095;53.336;-1.488;2022-08-23T02:09:04;4;3;
61913;PMS5003;50095;53.336;-1.488;2022-08-23T02:11:34;5;4;
61913;PMS5003;50095;53.336;-1.488;2022-08-23T02:14:03;2;2;
61913;PMS5003;50095;53.336;-1.488;2022-08-23T02:16:35;3;3;
61913;PMS5003;50095;53.336;-1.488;2022-08-23T02:19:05;3;3;
61913;PMS5003;50095;53.336;-1.488;2022-08-23T02:21:35;2;2;
61913;PMS5003;50095;53.336;-1.488;2022-08-23T02:24:03;1;1;
61913;PMS5003;50095;53.336;-1.488;2022-08-23T02:26:33;1;1;
61913;PMS5003;50095;53.336;-1.488;2022-08-23T02:29:01;1;1;
61913;PMS5003;50095;53.336;-1.488;2022-08-23T02:31:30;3;3;
61913;PMS5003;50095;53.336;-1.488;2022-08-23T02:33:58;3;3;
61913;PMS5003;50095;53.336;-1.488;2022-08-23T02:36:26;2;2;
61913;PMS5003;50095;53.336;-1.488;2022-08-23T02:38:53;4;1;
61913;PMS5003;50095;53.336;-1.488;2022-08-23T02:41:21;2;2;
61913;PMS5003;50095;53.336;-1.488;2022-08-23T02:43:49;1;1;
61913;PMS5003;50095;53.336;-1.488;2022-08-23T02:46:17;3;3;
61913;PMS5003;50095;53.336;-1.488;2022-08-23T02:48:44;3;2;
61913;PMS5003;50095;53.336;-1.488;2022-08-23T02:51:12;2;1;
61913;PMS5003;50095;53.336;-1.488;2022-08-23T02:53:40;2;2;
61913;PMS5003;50095;53.336;-1.488;2022-08-23T02:56:08;2;2;
61913;PMS5003;50095;53.336;-1.488;2022-08-23T02:58:36;3;3;
61913;PMS5003;50095;53.336;-1.488;2022-08-23T03:01:04;1;1;
61913;PMS5003;50095;53.336;-1.488;2022-08-23T03:03:32;2;2;
61913;PMS5003;50095;53.336;-1.488;2022-08-23T03:06:00;1;1;
61913;PMS5003;50095;53.336;-1.488;2022-08-23T03:08:27;2;2;
61913;PMS5003;50095;53.336;-1.488;2022-08-23T03:10:54;4;4;
61913;PMS5003;50095;53.336;-1.488;2022-08-23T03:13:22;2;2;
61913;PMS5003;50095;53.336;-1.488;2022-08-23T03:15:50;2;2;
61913;PMS5003;50095;53.336;-1.488;2022-08-23T03:18:17;1;1;
61913;PMS5003;50095;53.336;-1.488;2022-08-23T03:20:45;1;1;
61913;PMS5003;50095;53.336;-1.488;2022-08-23T03:23:12;4;4;
61913;PMS5003;50095;53.336;-1.488;2022-08-23T03:25:40;3;3;
61913;PMS5003;50095;53.336;-1.488;2022-08-23T03:28:07;2;2;
61913;PMS5003;50095;53.336;-1.488;2022-08-23T03:30:35;2;2;
61913;PMS5003;50095;53.336;-1.488;2022-08-23T03:33:02;2;2;
61913;PMS5003;50095;53.336;-1.488;2022-08-23T03:35:30;3;2;
61913;PMS5003;50095;53.336;-1.488;2022-08-23T03:37:58;2;2;
61913;PMS5003;50095;53.336;-1.488;2022-08-23T03:40:25;1;1;
61913;PMS5003;50095;53.336;-1.488;2022-08-23T03:42:53;3;3;
61913;PMS5003;50095;53.336;-1.488;2022-08-23T03:45:20;2;2;
61913;PMS5003;50095;53.336;-1.488;2022-08-23T03:47:48;4;2;
61913;PMS5003;50095;53.336;-1.488;2022-08-23T03:50:16;2;2;
61913;PMS5003;50095;53.336;-1.488;2022-08-23T03:52:44;1;1;
61913;PMS5003;50095;53.336;-1.488;2022-08-23T03:55:11;3;3;
61913;PMS5003;50095;53.336;-1.488;2022-08-23T03:57:39;3;3;
61913;PMS5003;50095;53.336;-1.488;2022-08-23T04:00:08;2;2;
61913;PMS5003;50095;53.336;-1.488;2022-08-23T04:02:38;2;2;
61913;PMS5003;50095;53.336;-1.488;2022-08-23T04:05:06;4;4;
61913;PMS5003;50095;53.336;-1.488;2022-08-23T04:07:34;3;3;
61913;PMS5003;50095;53.336;-1.488;2022-08-23T04:10:02;3;3;
61913;PMS5003;50095;53.336;-1.488;2022-08-23T04:12:30;2;2;
61913;PMS5003;50095;53.336;-1.488;2022-08-23T04:14:58;2;2;
61913;PMS5003;50095;53.336;-1.488;2022-08-23T04:17:26;1;1;
61913;PMS5003;50095;53.336;-1.488;2022-08-23T04:19:53;2;2;
61913;PMS5003;50095;53.336;-1.488;2022-08-23T04:22:22;2;2;
61913;PMS5003;50095;53.336;-1.488;2022-08-23T04:24:49;2;2;
61913;PMS5003;50095;53.336;-1.488;2022-08-23T04:27:16;3;3;
61913;PMS5003;50095;53.336;-1.488;2022-08-23T04:29:44;3;3;
61913;PMS5003;50095;53.336;-1.488;2022-08-23T04:32:11;2;2;
61913;PMS5003;50095;53.336;-1.488;2022-08-23T04:34:39;2;2;
61913;PMS5003;50095;53.336;-1.488;2022-08-23T04:37:07;2;2;
61913;PMS5003;50095;53.336;-1.488;2022-08-23T04:39:35;3;3;
61913;PMS5003;50095;53.336;-1.488;2022-08-23T04:42:02;3;3;
61913;PMS5003;50095;53.336;-1.488;2022-08-23T04:44:30;2;2;
61913;PMS5003;50095;53.336;-1.488;2022-08-23T04:46:57;4;4;
61913;PMS5003;50095;53.336;-1.488;2022-08-23T04:49:25;2;2;
61913;PMS5003;50095;53.336;-1.488;2022-08-23T04:51:53;3;3;
61913;PMS5003;50095;53.336;-1.488;2022-08-23T04:54:20;4;4;
61913;PMS5003;50095;53.336;-1.488;2022-08-23T04:56:48;2;2;
61913;PMS5003;50095;53.336;-1.488;2022-08-23T04:59:15;3;3;
61913;PMS5003;50095;53.336;-1.488;2022-08-23T05:01:44;5;5;
61913;PMS5003;50095;53.336;-1.488;2022-08-23T05:04:12;2;2;
61913;PMS5003;50095;53.336;-1.488;2022-08-23T05:06:39;4;3;
61913;PMS5003;50095;53.336;-1.488;2022-08-23T05:09:07;2;2;
61913;PMS5003;50095;53.336;-1.488;2022-08-23T05:11:35;4;4;
61913;PMS5003;50095;53.336;-1.488;2022-08-23T05:14:02;4;4;
61913;PMS5003;50095;53.336;-1.488;2022-08-23T05:16:30;2;2;
61913;PMS5003;50095;53.336;-1.488;2022-08-23T05:18:58;3;3;
61913;PMS5003;50095;53.336;-1.488;2022-08-23T05:21:26;5;5;
61913;PMS5003;50095;53.336;-1.488;2022-08-23T05:23:53;3;2;
61913;PMS5003;50095;53.336;-1.488;2022-08-23T05:26:21;2;2;
61913;PMS5003;50095;53.336;-1.488;2022-08-23T05:28:49;1;1;
61913;PMS5003;50095;53.336;-1.488;2022-08-23T05:31:17;3;2;
61913;PMS5003;50095;53.336;-1.488;2022-08-23T05:33:48;3;3;
61913;PMS5003;50095;53.336;-1.488;2022-08-23T05:36:18;4;4;
61913;PMS5003;50095;53.336;-1.488;2022-08-23T05:38:46;3;3;
61913;PMS5003;50095;53.336;-1.488;2022-08-23T05:41:14;3;3;
61913;PMS5003;50095;53.336;-1.488;2022-08-23T05:43:42;3;3;
61913;PMS5003;50095;53.336;-1.488;2022-08-23T05:46:10;3;3;
61913;PMS5003;50095;53.336;-1.488;2022-08-23T05:48:39;3;3;
61913;PMS5003;50095;53.336;-1.488;2022-08-23T05:51:09;3;3;
61913;PMS5003;50095;53.336;-1.488;2022-08-23T05:53:38;3;3;
61913;PMS5003;50095;53.336;-1.488;2022-08-23T05:56:09;3;3;
61913;PMS5003;50095;53.336;-1.488;2022-08-23T05:58:38;3;3;
61913;PMS5003;50095;53.336;-1.488;2022-08-23T06:01:06;2;2;
61913;PMS5003;50095;53.336;-1.488;2022-08-23T06:03:34;4;4;
61913;PMS5003;50095;53.336;-1.488;2022-08-23T06:06:02;3;3;
61913;PMS5003;50095;53.336;-1.488;2022-08-23T06:08:30;4;3;
61913;PMS5003;50095;53.336;-1.488;2022-08-23T06:10:59;3;3;
61913;PMS5003;50095;53.336;-1.488;2022-08-23T06:13:27;4;3;
61913;PMS5003;50095;53.336;-1.488;2022-08-23T06:15:55;3;3;
61913;PMS5003;50095;53.336;-1.488;2022-08-23T06:18:23;5;5;
61913;PMS5003;50095;53.336;-1.488;2022-08-23T06:20:58;1;1;
61913;PMS5003;50095;53.336;-1.488;2022-08-23T06:23:26;4;4;
61913;PMS5003;50095;53.336;-1.488;2022-08-23T06:25:54;3;3;
61913;PMS5003;50095;53.336;-1.488;2022-08-23T06:28:22;3;3;
61913;PMS5003;50095;53.336;-1.488;2022-08-23T06:30:51;5;4;
61913;PMS5003;50095;53.336;-1.488;2022-08-23T06:33:20;3;3;
61913;PMS5003;50095;53.336;-1.488;2022-08-23T06:35:47;4;4;
61913;PMS5003;50095;53.336;-1.488;2022-08-23T06:38:15;3;3;
61913;PMS5003;50095;53.336;-1.488;2022-08-23T06:40:43;3;3;
61913;PMS5003;50095;53.336;-1.488;2022-08-23T06:43:10;3;3;
61913;PMS5003;50095;53.336;-1.488;2022-08-23T06:45:37;3;3;
61913;PMS5003;50095;53.336;-1.488;2022-08-23T06:48:06;3;3;
61913;PMS5003;50095;53.336;-1.488;2022-08-23T06:50:33;4;4;
61913;PMS5003;50095;53.336;-1.488;2022-08-23T06:53:00;5;5;
61913;PMS5003;50095;53.336;-1.488;2022-08-23T06:55:28;2;2;
61913;PMS5003;50095;53.336;-1.488;2022-08-23T06:57:55;3;3;
61913;PMS5003;50095;53.336;-1.488;2022-08-23T07:00:23;3;3;
61913;PMS5003;50095;53.336;-1.488;2022-08-23T07:02:51;3;3;
61913;PMS5003;50095;53.336;-1.488;2022-08-23T07:05:23;4;4;
61913;PMS5003;50095;53.336;-1.488;2022-08-23T07:07:50;3;3;
61913;PMS5003;50095;53.336;-1.488;2022-08-23T07:10:17;3;3;
61913;PMS5003;50095;53.336;-1.488;2022-08-23T07:12:45;4;4;
61913;PMS5003;50095;53.336;-1.488;2022-08-23T07:15:13;5;4;
61913;PMS5003;50095;53.336;-1.488;2022-08-23T07:17:40;4;4;
61913;PMS5003;50095;53.336;-1.488;2022-08-23T07:20:08;3;3;
61913;PMS5003;50095;53.336;-1.488;2022-08-23T07:22:36;4;4;
61913;PMS5003;50095;53.336;-1.488;2022-08-23T07:25:03;5;3;
61913;PMS5003;50095;53.336;-1.488;2022-08-23T07:27:30;5;5;
61913;PMS5003;50095;53.336;-1.488;2022-08-23T07:29:58;5;5;
61913;PMS5003;50095;53.336;-1.488;2022-08-23T07:32:26;5;5;
61913;PMS5003;50095;53.336;-1.488;2022-08-23T07:34:53;3;3;
61913;PMS5003;50095;53.336;-1.488;2022-08-23T07:37:20;9;6;
61913;PMS5003;50095;53.336;-1.488;2022-08-23T07:39:47;5;5;
61913;PMS5003;50095;53.336;-1.488;2022-08-23T07:42:15;6;6;
61913;PMS5003;50095;53.336;-1.488;2022-08-23T07:44:42;6;6;
61913;PMS5003;50095;53.336;-1.488;2022-08-23T07:47:10;7;6;
61913;PMS5003;50095;53.336;-1.488;2022-08-23T07:49:37;7;7;
61913;PMS5003;50095;53.336;-1.488;2022-08-23T07:52:06;12;12;
61913;PMS5003;50095;53.336;-1.488;2022-08-23T07:54:33;5;5;
61913;PMS5003;50095;53.336;-1.488;2022-08-23T07:57:00;6;6;
61913;PMS5003;50095;53.336;-1.488;2022-08-23T07:59:28;5;5;
61913;PMS5003;50095;53.336;-1.488;2022-08-23T08:01:55;8;7;
61913;PMS5003;50095;53.336;-1.488;2022-08-23T08:04:23;4;4;
61913;PMS5003;50095;53.336;-1.488;2022-08-23T08:06:50;7;6;
61913;PMS5003;50095;53.336;-1.488;2022-08-23T08:09:18;6;6;
61913;PMS5003;50095;53.336;-1.488;2022-08-23T08:11:46;6;6;
61913;PMS5003;50095;53.336;-1.488;2022-08-23T08:14:15;10;7;
61913;PMS5003;50095;53.336;-1.488;2022-08-23T08:16:43;7;7;
61913;PMS5003;50095;53.336;-1.488;2022-08-23T08:19:13;6;6;
61913;PMS5003;50095;53.336;-1.488;2022-08-23T08:21:42;7;6;
61913;PMS5003;50095;53.336;-1.488;2022-08-23T08:24:10;6;6;
61913;PMS5003;50095;53.336;-1.488;2022-08-23T08:26:39;8;8;
61913;PMS5003;50095;53.336;-1.488;2022-08-23T08:29:08;7;7;
61913;PMS5003;50095;53.336;-1.488;2022-08-23T08:31:36;5;5;
61913;PMS5003;50095;53.336;-1.488;2022-08-23T08:34:04;6;6;
61913;PMS5003;50095;53.336;-1.488;2022-08-23T08:36:33;5;5;
61913;PMS5003;50095;53.336;-1.488;2022-08-23T08:39:05;6;5;
61913;PMS5003;50095;53.336;-1.488;2022-08-23T08:41:39;6;6;
61913;PMS5003;50095;53.336;-1.488;2022-08-23T08:44:17;6;5;
61913;PMS5003;50095;53.336;-1.488;2022-08-23T08:46:55;7;7;
61913;PMS5003;50095;53.336;-1.488;2022-08-23T08:49:28;4;3;
61913;PMS5003;50095;53.336;-1.488;2022-08-23T08:52:02;5;5;
61913;PMS5003;50095;53.336;-1.488;2022-08-23T08:54:38;6;6;
61913;PMS5003;50095;53.336;-1.488;2022-08-23T08:57:07;7;7;
61913;PMS5003;50095;53.336;-1.488;2022-08-23T08:59:43;7;5;
61913;PMS5003;50095;53.336;-1.488;2022-08-23T09:02:18;6;5;
61913;PMS5003;50095;53.336;-1.488;2022-08-23T09:04:47;5;5;
61913;PMS5003;50095;53.336;-1.488;2022-08-23T09:07:17;4;4;
61913;PMS5003;50095;53.336;-1.488;2022-08-23T09:10:12;4;4;
61913;PMS5003;50095;53.336;-1.488;2022-08-23T09:13:02;7;7;
61913;PMS5003;50095;53.336;-1.488;2022-08-23T09:15:51;6;6;
61913;PMS5003;50095;53.336;-1.488;2022-08-23T09:18:27;6;6;
61913;PMS5003;50095;53.336;-1.488;2022-08-23T09:21:00;4;4;
61913;PMS5003;50095;53.336;-1.488;2022-08-23T09:23:32;6;6;
61913;PMS5003;50095;53.336;-1.488;2022-08-23T09:26:15;6;6;
61913;PMS5003;50095;53.336;-1.488;2022-08-23T09:28:44;7;7;
61913;PMS5003;50095;53.336;-1.488;2022-08-23T09:31:12;5;5;
61913;PMS5003;50095;53.336;-1.488;2022-08-23T09:34:02;6;6;
61913;PMS5003;50095;53.336;-1.488;2022-08-23T09:36:31;7;7;
61913;PMS5003;50095;53.336;-1.488;2022-08-23T09:39:01;9;8;
61913;PMS5003;50095;53.336;-1.488;2022-08-23T09:41:33;4;4;
61913;PMS5003;50095;53.336;-1.488;2022-08-23T09:44:02;6;5;
61913;PMS5003;50095;53.336;-1.488;2022-08-23T09:46:33;7;7;
61913;PMS5003;50095;53.336;-1.488;2022-08-23T09:49:19;5;5;
61913;PMS5003;50095;53.336;-1.488;2022-08-23T09:51:50;6;6;
61913;PMS5003;50095;53.336;-1.488;2022-08-23T09:54:19;5;5;
61913;PMS5003;50095;53.336;-1.488;2022-08-23T09:56:51;6;6;
61913;PMS5003;50095;53.336;-1.488;2022-08-23T09:59:30;8;8;
61913;PMS5003;50095;53.336;-1.488;2022-08-23T10:02:12;7;7;
61913;PMS5003;50095;53.336;-1.488;2022-08-23T10:04:43;5;5;
61913;PMS5003;50095;53.336;-1.488;2022-08-23T10:07:22;5;5;
61913;PMS5003;50095;53.336;-1.488;2022-08-23T10:09:53;5;5;
61913;PMS5003;50095;53.336;-1.488;2022-08-23T10:12:38;7;7;
61913;PMS5003;50095;53.336;-1.488;2022-08-23T10:15:06;4;4;
61913;PMS5003;50095;53.336;-1.488;2022-08-23T10:17:35;5;5;
61913;PMS5003;50095;53.336;-1.488;2022-08-23T10:20:11;4;4;
61913;PMS5003;50095;53.336;-1.488;2022-08-23T10:22:50;5;5;
61913;PMS5003;50095;53.336;-1.488;2022-08-23T10:25:25;6;6;
61913;PMS5003;50095;53.336;-1.488;2022-08-23T10:28:00;5;4;
61913;PMS5003;50095;53.336;-1.488;2022-08-23T10:30:39;5;5;
61913;PMS5003;50095;53.336;-1.488;2022-08-23T10:33:15;6;6;
61913;PMS5003;50095;53.336;-1.488;2022-08-23T10:35:50;7;5;
61913;PMS5003;50095;53.336;-1.488;2022-08-23T10:38:38;7;6;
61913;PMS5003;50095;53.336;-1.488;2022-08-23T10:41:14;4;4;
61913;PMS5003;50095;53.336;-1.488;2022-08-23T10:43:55;3;3;
61913;PMS5003;50095;53.336;-1.488;2022-08-23T10:46:36;5;5;
61913;PMS5003;50095;53.336;-1.488;2022-08-23T10:49:09;5;5;
61913;PMS5003;50095;53.336;-1.488;2022-08-23T10:51:41;4;4;
61913;PMS5003;50095;53.336;-1.488;2022-08-23T10:54:14;5;3;
61913;PMS5003;50095;53.336;-1.488;2022-08-23T10:56:44;5;4;
61913;PMS5003;50095;53.336;-1.488;2022-08-23T10:59:13;5;5;
61913;PMS5003;50095;53.336;-1.488;2022-08-23T11:01:44;5;5;
61913;PMS5003;50095;53.336;-1.488;2022-08-23T11:04:25;6;6;
61913;PMS5003;50095;53.336;-1.488;2022-08-23T11:06:58;4;4;
61913;PMS5003;50095;53.336;-1.488;2022-08-23T11:09:29;4;4;
61913;PMS5003;50095;53.336;-1.488;2022-08-23T11:12:17;4;4;
61913;PMS5003;50095;53.336;-1.488;2022-08-23T11:14:57;4;4;
61913;PMS5003;50095;53.336;-1.488;2022-08-23T11:17:51;4;4;
61913;PMS5003;50095;53.336;-1.488;2022-08-23T11:22:32;4;4;
61913;PMS5003;50095;53.336;-1.488;2022-08-23T11:25:38;3;3;
61913;PMS5003;50095;53.336;-1.488;2022-08-23T11:28:49;5;5;
61913;PMS5003;50095;53.336;-1.488;2022-08-23T11:31:24;5;5;
61913;PMS5003;50095;53.336;-1.488;2022-08-23T11:33:59;5;5;
61913;PMS5003;50095;53.336;-1.488;2022-08-23T11:36:29;4;4;
61913;PMS5003;50095;53.336;-1.488;2022-08-23T11:39:00;5;5;
61913;PMS5003;50095;53.336;-1.488;2022-08-23T11:41:32;4;4;
61913;PMS5003;50095;53.336;-1.488;2022-08-23T11:44:20;4;4;
61913;PMS5003;50095;53.336;-1.488;2022-08-23T11:46:59;4;4;
61913;PMS5003;50095;53.336;-1.488;2022-08-23T11:50:38;6;6;
61913;PMS5003;50095;53.336;-1.488;2022-08-23T11:53:27;4;4;
61913;PMS5003;50095;53.336;-1.488;2022-08-23T11:56:15;4;4;
61913;PMS5003;50095;53.336;-1.488;2022-08-23T11:59:03;5;5;
61913;PMS5003;50095;53.336;-1.488;2022-08-23T12:01:44;6;6;
61913;PMS5003;50095;53.336;-1.488;2022-08-23T12:04:25;4;4;
61913;PMS5003;50095;53.336;-1.488;2022-08-23T12:06:57;3;3;
61913;PMS5003;50095;53.336;-1.488;2022-08-23T12:09:51;3;3;
61913;PMS5003;50095;53.336;-1.488;2022-08-23T12:12:29;5;5;
61913;PMS5003;50095;53.336;-1.488;2022-08-23T12:14:59;3;3;
61913;PMS5003;50095;53.336;-1.488;2022-08-23T12:18:38;5;4;
61913;PMS5003;50095;53.336;-1.488;2022-08-23T12:21:15;4;4;
61913;PMS5003;50095;53.336;-1.488;2022-08-23T12:23:47;8;5;
61913;PMS5003;50095;53.336;-1.488;2022-08-23T12:26:20;5;5;
61913;PMS5003;50095;53.336;-1.488;2022-08-23T12:28:54;5;4;
61913;PMS5003;50095;53.336;-1.488;2022-08-23T12:31:27;4;4;
61913;PMS5003;50095;53.336;-1.488;2022-08-23T12:34:06;4;4;
61913;PMS5003;50095;53.336;-1.488;2022-08-23T12:36:41;3;3;
61913;PMS5003;50095;53.336;-1.488;2022-08-23T12:39:21;3;3;
61913;PMS5003;50095;53.336;-1.488;2022-08-23T12:41:53;5;5;
61913;PMS5003;50095;53.336;-1.488;2022-08-23T12:44:25;3;2;
61913;PMS5003;50095;53.336;-1.488;2022-08-23T12:46:54;4;3;
61913;PMS5003;50095;53.336;-1.488;2022-08-23T12:49:23;4;4;
61913;PMS5003;50095;53.336;-1.488;2022-08-23T12:51:55;5;4;
61913;PMS5003;50095;53.336;-1.488;2022-08-23T12:54:32;4;4;
61913;PMS5003;50095;53.336;-1.488;2022-08-23T12:57:01;4;4;
61913;PMS5003;50095;53.336;-1.488;2022-08-23T12:59:33;4;4;
61913;PMS5003;50095;53.336;-1.488;2022-08-23T13:02:04;5;5;
61913;PMS5003;50095;53.336;-1.488;2022-08-23T13:04:34;3;3;
61913;PMS5003;50095;53.336;-1.488;2022-08-23T13:07:07;3;3;
61913;PMS5003;50095;53.336;-1.488;2022-08-23T13:09:38;5;4;
61913;PMS5003;50095;53.336;-1.488;2022-08-23T13:12:08;4;4;
61913;PMS5003;50095;53.336;-1.488;2022-08-23T13:14:41;3;3;
61913;PMS5003;50095;53.336;-1.488;2022-08-23T13:17:14;5;5;
61913;PMS5003;50095;53.336;-1.488;2022-08-23T13:19:45;5;5;
61913;PMS5003;50095;53.336;-1.488;2022-08-23T13:22:20;3;3;
61913;PMS5003;50095;53.336;-1.488;2022-08-23T13:24:58;3;3;
61913;PMS5003;50095;53.336;-1.488;2022-08-23T13:27:30;3;3;
61913;PMS5003;50095;53.336;-1.488;2022-08-23T13:30:00;5;5;
61913;PMS5003;50095;53.336;-1.488;2022-08-23T13:32:44;3;3;
61913;PMS5003;50095;53.336;-1.488;2022-08-23T13:35:32;2;2;
61913;PMS5003;50095;53.336;-1.488;2022-08-23T13:38:07;3;3;
61913;PMS5003;50095;53.336;-1.488;2022-08-23T13:40:41;2;2;
61913;PMS5003;50095;53.336;-1.488;2022-08-23T13:43:14;4;4;
61913;PMS5003;50095;53.336;-1.488;2022-08-23T13:45:48;5;5;
61913;PMS5003;50095;53.336;-1.488;2022-08-23T13:48:19;4;4;
61913;PMS5003;50095;53.336;-1.488;2022-08-23T13:50:47;3;3;
61913;PMS5003;50095;53.336;-1.488;2022-08-23T13:53:16;4;4;
61913;PMS5003;50095;53.336;-1.488;2022-08-23T13:55:45;5;5;
61913;PMS5003;50095;53.336;-1.488;2022-08-23T13:58:16;4;4;
61913;PMS5003;50095;53.336;-1.488;2022-08-23T14:00:51;5;5;
61913;PMS5003;50095;53.336;-1.488;2022-08-23T14:03:19;5;4;
61913;PMS5003;50095;53.336;-1.488;2022-08-23T14:05:46;4;4;
61913;PMS5003;50095;53.336;-1.488;2022-08-23T14:08:14;5;5;
61913;PMS5003;50095;53.336;-1.488;2022-08-23T14:10:41;4;4;
61913;PMS5003;50095;53.336;-1.488;2022-08-23T14:13:08;3;3;
61913;PMS5003;50095;53.336;-1.488;2022-08-23T14:15:36;2;2;
61913;PMS5003;50095;53.336;-1.488;2022-08-23T14:18:05;5;5;
61913;PMS5003;50095;53.336;-1.488;2022-08-23T14:20:33;4;4;
61913;PMS5003;50095;53.336;-1.488;2022-08-23T14:23:00;4;4;
61913;PMS5003;50095;53.336;-1.488;2022-08-23T14:25:28;3;3;
61913;PMS5003;50095;53.336;-1.488;2022-08-23T14:27:55;4;4;
61913;PMS5003;50095;53.336;-1.488;2022-08-23T14:30:25;4;4;
61913;PMS5003;50095;53.336;-1.488;2022-08-23T14:32:56;7;7;
61913;PMS5003;50095;53.336;-1.488;2022-08-23T14:35:25;5;5;
61913;PMS5003;50095;53.336;-1.488;2022-08-23T14:37:53;5;5;
61913;PMS5003;50095;53.336;-1.488;2022-08-23T14:40:21;4;4;
61913;PMS5003;50095;53.336;-1.488;2022-08-23T14:42:48;6;4;
61913;PMS5003;50095;53.336;-1.488;2022-08-23T14:45:16;6;6;
61913;PMS5003;50095;53.336;-1.488;2022-08-23T14:47:44;6;5;
61913;PMS5003;50095;53.336;-1.488;2022-08-23T14:50:12;6;5;
61913;PMS5003;50095;53.336;-1.488;2022-08-23T14:52:41;6;6;
61913;PMS5003;50095;53.336;-1.488;2022-08-23T14:55:11;5;5;
61913;PMS5003;50095;53.336;-1.488;2022-08-23T14:57:39;7;7;
61913;PMS5003;50095;53.336;-1.488;2022-08-23T15:00:08;7;6;
61913;PMS5003;50095;53.336;-1.488;2022-08-23T15:02:37;7;7;
61913;PMS5003;50095;53.336;-1.488;2022-08-23T15:05:07;8;8;
61913;PMS5003;50095;53.336;-1.488;2022-08-23T15:07:35;6;6;
61913;PMS5003;50095;53.336;-1.488;2022-08-23T15:10:04;6;6;
61913;PMS5003;50095;53.336;-1.488;2022-08-23T15:12:32;7;7;
61913;PMS5003;50095;53.336;-1.488;2022-08-23T15:15:00;7;6;
61913;PMS5003;50095;53.336;-1.488;2022-08-23T15:17:27;7;7;
61913;PMS5003;50095;53.336;-1.488;2022-08-23T15:19:55;6;6;
61913;PMS5003;50095;53.336;-1.488;2022-08-23T15:22:22;10;10;
61913;PMS5003;50095;53.336;-1.488;2022-08-23T15:24:49;9;9;
61913;PMS5003;50095;53.336;-1.488;2022-08-23T15:27:17;11;10;
61913;PMS5003;50095;53.336;-1.488;2022-08-23T15:29:44;7;7;
61913;PMS5003;50095;53.336;-1.488;2022-08-23T15:32:12;8;8;
61913;PMS5003;50095;53.336;-1.488;2022-08-23T15:34:39;10;10;
61913;PMS5003;50095;53.336;-1.488;2022-08-23T15:37:06;12;12;
61913;PMS5003;50095;53.336;-1.488;2022-08-23T15:39:34;11;10;
61913;PMS5003;50095;53.336;-1.488;2022-08-23T15:42:02;11;10;
61913;PMS5003;50095;53.336;-1.488;2022-08-23T15:44:29;10;10;
61913;PMS5003;50095;53.336;-1.488;2022-08-23T15:46:57;9;9;
61913;PMS5003;50095;53.336;-1.488;2022-08-23T15:49:24;9;9;
61913;PMS5003;50095;53.336;-1.488;2022-08-23T15:51:54;9;9;
61913;PMS5003;50095;53.336;-1.488;2022-08-23T15:54:21;9;9;
61913;PMS5003;50095;53.336;-1.488;2022-08-23T15:56:48;9;7;
61913;PMS5003;50095;53.336;-1.488;2022-08-23T15:59:16;9;9;
61913;PMS5003;50095;53.336;-1.488;2022-08-23T16:01:44;10;9;
61913;PMS5003;50095;53.336;-1.488;2022-08-23T16:04:12;9;7;
61913;PMS5003;50095;53.336;-1.488;2022-08-23T16:06:39;10;10;
61913;PMS5003;50095;53.336;-1.488;2022-08-23T16:09:08;8;8;
61913;PMS5003;50095;53.336;-1.488;2022-08-23T16:11:49;8;8;
61913;PMS5003;50095;53.336;-1.488;2022-08-23T16:14:16;12;11;
61913;PMS5003;50095;53.336;-1.488;2022-08-23T16:16:43;7;7;
61913;PMS5003;50095;53.336;-1.488;2022-08-23T16:19:11;7;7;
61913;PMS5003;50095;53.336;-1.488;2022-08-23T16:21:39;8;7;
61913;PMS5003;50095;53.336;-1.488;2022-08-23T16:24:07;8;7;
61913;PMS5003;50095;53.336;-1.488;2022-08-23T16:26:35;11;8;
61913;PMS5003;50095;53.336;-1.488;2022-08-23T16:29:05;8;8;
61913;PMS5003;50095;53.336;-1.488;2022-08-23T16:31:35;7;7;
61913;PMS5003;50095;53.336;-1.488;2022-08-23T16:34:02;6;6;
61913;PMS5003;50095;53.336;-1.488;2022-08-23T16:36:31;8;7;
61913;PMS5003;50095;53.336;-1.488;2022-08-23T16:38:58;8;6;
61913;PMS5003;50095;53.336;-1.488;2022-08-23T16:41:25;6;6;
61913;PMS5003;50095;53.336;-1.488;2022-08-23T16:43:53;7;7;
61913;PMS5003;50095;53.336;-1.488;2022-08-23T16:46:21;9;9;
61913;PMS5003;50095;53.336;-1.488;2022-08-23T16:48:50;7;6;
61913;PMS5003;50095;53.336;-1.488;2022-08-23T16:51:17;10;10;
61913;PMS5003;50095;53.336;-1.488;2022-08-23T16:53:44;8;8;
61913;PMS5003;50095;53.336;-1.488;2022-08-23T16:56:12;7;6;
61913;PMS5003;50095;53.336;-1.488;2022-08-23T16:58:39;6;6;
61913;PMS5003;50095;53.336;-1.488;2022-08-23T17:01:09;7;6;